BCS2406 EDDP-EDDK
Flight info
| Callsign | BCS2406 |
|---|---|
| Flight time | 0h 39m |
| Altitude | 24000 |
| Route | ORTAG5N ORTAG Q230 KUMER DCT TOLTA DCT PODER Z189 RUNER T858 KOPAG KOPAG1F |
| Aircraft | B763/H-SDE1GHIJ5M1P2RWXYZ/LB1D1 |
Departure
| Time | 2026-04-22 19:33 |
|---|---|
| Airport | Leipzig/Halle Airport (EDDP) |
Arrival
| Time | 2026-04-22 20:12 |
|---|---|
| Airport | Cologne Bonn Airport (EDDK) |
| Time | Latitude | Longitude | Altitude | Speed | Heading |
|---|---|---|---|---|---|
| 2026-04-22 19:10 | 51.40971 | 12.24024 | 469 ft | 0 kts | 266° |
| 2026-04-22 19:25 | 51.40972 | 12.24034 | 468 ft | 2 kts | 266° |
| 2026-04-22 19:25 | 51.40973 | 12.24058 | 468 ft | 2 kts | 265° |
| 2026-04-22 19:25 | 51.40974 | 12.24083 | 469 ft | 2 kts | 266° |
| 2026-04-22 19:25 | 51.40975 | 12.24107 | 468 ft | 2 kts | 278° |
| 2026-04-22 19:26 | 51.40968 | 12.24126 | 468 ft | 2 kts | 330° |
| 2026-04-22 19:26 | 51.40960 | 12.24131 | 468 ft | 1 kts | 358° |
| 2026-04-22 19:26 | 51.40957 | 12.24131 | 468 ft | 0 kts | 356° |
| 2026-04-22 19:28 | 51.41003 | 12.24126 | 469 ft | 13 kts | 355° |
| 2026-04-22 19:28 | 51.41068 | 12.24160 | 469 ft | 9 kts | 68° |
| 2026-04-22 19:29 | 51.41079 | 12.24282 | 469 ft | 13 kts | 86° |
| 2026-04-22 19:29 | 51.41089 | 12.24488 | 470 ft | 24 kts | 86° |
| 2026-04-22 19:29 | 51.41102 | 12.24789 | 470 ft | 28 kts | 85° |
| 2026-04-22 19:29 | 51.41115 | 12.25063 | 471 ft | 21 kts | 86° |
| 2026-04-22 19:30 | 51.41121 | 12.25214 | 472 ft | 18 kts | 86° |
| 2026-04-22 19:30 | 51.41133 | 12.25475 | 473 ft | 16 kts | 85° |
| 2026-04-22 19:30 | 51.41152 | 12.25597 | 474 ft | 8 kts | 47° |
| 2026-04-22 19:30 | 51.41195 | 12.25623 | 474 ft | 4 kts | 3° |
| 2026-04-22 19:31 | 51.41227 | 12.25623 | 475 ft | 4 kts | 356° |
| 2026-04-22 19:31 | 51.41271 | 12.25618 | 475 ft | 8 kts | 354° |
| 2026-04-22 19:31 | 51.41347 | 12.25601 | 476 ft | 12 kts | 352° |
| 2026-04-22 19:31 | 51.41398 | 12.25564 | 476 ft | 4 kts | 289° |
| 2026-04-22 19:32 | 51.41399 | 12.25542 | 476 ft | 1 kts | 266° |
| 2026-04-22 19:32 | 51.41398 | 12.25526 | 476 ft | 0 kts | 266° |
| 2026-04-22 19:32 | 51.41398 | 12.25522 | 476 ft | 3 kts | 266° |
| 2026-04-22 19:32 | 51.41383 | 12.25197 | 474 ft | 59 kts | 266° |
| 2026-04-22 19:33 | 51.41337 | 12.24192 | 470 ft | 118 kts | 265° |
| 2026-04-22 19:33 | 51.41264 | 12.22621 | 496 ft | 163 kts | 266° |
| 2026-04-22 19:33 | 51.41135 | 12.20717 | 916 ft | 182 kts | 262° |
| 2026-04-22 19:33 | 51.40928 | 12.18630 | 1392 ft | 202 kts | 266° |
| 2026-04-22 19:34 | 51.40771 | 12.16287 | 1898 ft | 221 kts | 268° |
| 2026-04-22 19:34 | 51.40635 | 12.13707 | 2431 ft | 243 kts | 269° |
| 2026-04-22 19:34 | 51.40511 | 12.10964 | 3216 ft | 254 kts | 270° |
| 2026-04-22 19:34 | 51.40395 | 12.08094 | 4077 ft | 263 kts | 270° |
| 2026-04-22 19:35 | 51.40284 | 12.05195 | 5054 ft | 267 kts | 270° |
| 2026-04-22 19:35 | 51.40173 | 12.02205 | 6019 ft | 272 kts | 270° |
| 2026-04-22 19:35 | 51.40064 | 11.99171 | 6943 ft | 278 kts | 270° |
| 2026-04-22 19:35 | 51.39952 | 11.96094 | 7908 ft | 281 kts | 270° |
| 2026-04-22 19:36 | 51.39834 | 11.92960 | 8799 ft | 287 kts | 270° |
| 2026-04-22 19:36 | 51.39678 | 11.89766 | 9680 ft | 293 kts | 269° |
| 2026-04-22 19:36 | 51.39516 | 11.86518 | 10544 ft | 298 kts | 269° |
| 2026-04-22 19:36 | 51.39351 | 11.83176 | 11138 ft | 314 kts | 269° |
| 2026-04-22 19:37 | 51.39173 | 11.79600 | 11671 ft | 332 kts | 269° |
| 2026-04-22 19:37 | 51.38982 | 11.75827 | 12195 ft | 351 kts | 269° |
| 2026-04-22 19:37 | 51.38985 | 11.71829 | 12682 ft | 366 kts | 282° |
| 2026-04-22 19:37 | 51.39801 | 11.66410 | 13442 ft | 385 kts | 287° |
| 2026-04-22 19:38 | 51.40215 | 11.63632 | 14109 ft | 388 kts | 287° |
| 2026-04-22 19:38 | 51.40866 | 11.59461 | 14959 ft | 396 kts | 287° |
| 2026-04-22 19:38 | 51.41528 | 11.55129 | 15888 ft | 401 kts | 287° |
| 2026-04-22 19:38 | 51.42193 | 11.50818 | 16698 ft | 408 kts | 287° |
| 2026-04-22 19:39 | 51.42871 | 11.46399 | 17486 ft | 414 kts | 287° |
| 2026-04-22 19:39 | 51.43559 | 11.41899 | 18342 ft | 419 kts | 287° |
| 2026-04-22 19:39 | 51.44251 | 11.37361 | 19068 ft | 426 kts | 287° |
| 2026-04-22 19:39 | 51.44721 | 11.34269 | 19632 ft | 429 kts | 286° |
| 2026-04-22 19:40 | 51.45673 | 11.27998 | 20635 ft | 436 kts | 286° |
| 2026-04-22 19:40 | 51.46382 | 11.23310 | 21411 ft | 440 kts | 286° |
| 2026-04-22 19:40 | 51.47106 | 11.18506 | 22036 ft | 448 kts | 285° |
| 2026-04-22 19:40 | 51.47840 | 11.13624 | 22775 ft | 452 kts | 285° |
| 2026-04-22 19:41 | 51.48576 | 11.08709 | 23178 ft | 461 kts | 285° |
| 2026-04-22 19:41 | 51.49204 | 11.03623 | 23515 ft | 461 kts | 281° |
| 2026-04-22 19:41 | 51.49768 | 10.98639 | 23778 ft | 460 kts | 282° |
| 2026-04-22 19:41 | 51.50350 | 10.93547 | 24045 ft | 461 kts | 282° |
| 2026-04-22 19:42 | 51.50927 | 10.88510 | 24293 ft | 464 kts | 282° |
| 2026-04-22 19:42 | 51.51511 | 10.83373 | 24326 ft | 471 kts | 282° |
| 2026-04-22 19:42 | 51.52099 | 10.78190 | 24321 ft | 468 kts | 282° |
| 2026-04-22 19:42 | 51.52673 | 10.73113 | 24318 ft | 464 kts | 282° |
| 2026-04-22 19:43 | 51.53836 | 10.62828 | 24325 ft | 474 kts | 283° |
| 2026-04-22 19:43 | 51.54557 | 10.57642 | 24318 ft | 472 kts | 285° |
| 2026-04-22 19:43 | 51.55258 | 10.52523 | 24320 ft | 471 kts | 284° |
| 2026-04-22 19:44 | 51.55962 | 10.47444 | 24323 ft | 469 kts | 284° |
| 2026-04-22 19:44 | 51.56668 | 10.42290 | 24330 ft | 469 kts | 284° |
| 2026-04-22 19:44 | 51.57362 | 10.37201 | 24329 ft | 470 kts | 284° |
| 2026-04-22 19:44 | 51.58056 | 10.32096 | 24334 ft | 471 kts | 283° |
| 2026-04-22 19:45 | 51.58755 | 10.26936 | 24333 ft | 471 kts | 283° |
| 2026-04-22 19:45 | 51.59455 | 10.21746 | 24337 ft | 471 kts | 283° |
| 2026-04-22 19:45 | 51.60145 | 10.16626 | 24341 ft | 470 kts | 283° |
| 2026-04-22 19:45 | 51.60829 | 10.11509 | 24341 ft | 470 kts | 283° |
| 2026-04-22 19:46 | 51.61510 | 10.06398 | 24347 ft | 470 kts | 283° |
| 2026-04-22 19:46 | 51.62134 | 10.01192 | 24345 ft | 470 kts | 278° |
| 2026-04-22 19:46 | 51.62308 | 9.95977 | 24353 ft | 472 kts | 269° |
| 2026-04-22 19:46 | 51.61948 | 9.90735 | 24355 ft | 473 kts | 259° |
| 2026-04-22 19:47 | 51.61131 | 9.85675 | 24351 ft | 473 kts | 251° |
| 2026-04-22 19:47 | 51.59936 | 9.80694 | 24350 ft | 472 kts | 249° |
| 2026-04-22 19:47 | 51.58787 | 9.75746 | 24239 ft | 476 kts | 250° |
| 2026-04-22 19:47 | 51.57646 | 9.70773 | 23974 ft | 475 kts | 250° |
| 2026-04-22 19:48 | 51.56544 | 9.65870 | 23710 ft | 468 kts | 250° |
| 2026-04-22 19:48 | 51.55445 | 9.60962 | 23438 ft | 461 kts | 250° |
| 2026-04-22 19:48 | 51.54370 | 9.56139 | 23173 ft | 457 kts | 251° |
| 2026-04-22 19:48 | 51.53296 | 9.51315 | 22905 ft | 458 kts | 251° |
| 2026-04-22 19:49 | 51.52227 | 9.46518 | 22651 ft | 459 kts | 251° |
| 2026-04-22 19:49 | 51.51151 | 9.41690 | 22390 ft | 457 kts | 251° |
| 2026-04-22 19:49 | 51.50092 | 9.36946 | 22346 ft | 451 kts | 251° |
| 2026-04-22 19:49 | 51.49031 | 9.32209 | 22347 ft | 451 kts | 250° |
| 2026-04-22 19:50 | 51.47960 | 9.27426 | 22359 ft | 456 kts | 250° |
| 2026-04-22 19:50 | 51.46889 | 9.22661 | 22348 ft | 457 kts | 250° |
| 2026-04-22 19:50 | 51.45799 | 9.17823 | 22195 ft | 458 kts | 250° |
| 2026-04-22 19:50 | 51.44727 | 9.13077 | 21925 ft | 457 kts | 250° |
| 2026-04-22 19:51 | 51.43649 | 9.08312 | 21610 ft | 453 kts | 250° |
| 2026-04-22 19:51 | 51.42575 | 9.03575 | 21222 ft | 449 kts | 250° |
| 2026-04-22 19:51 | 51.41519 | 8.98929 | 20868 ft | 445 kts | 250° |
| 2026-04-22 19:51 | 51.40456 | 8.94261 | 20492 ft | 442 kts | 251° |
| 2026-04-22 19:52 | 51.39408 | 8.89671 | 20126 ft | 440 kts | 251° |
| 2026-04-22 19:52 | 51.38352 | 8.85053 | 19774 ft | 438 kts | 251° |
| 2026-04-22 19:52 | 51.37317 | 8.80535 | 19438 ft | 436 kts | 251° |
| 2026-04-22 19:52 | 51.36280 | 8.76024 | 19095 ft | 434 kts | 251° |
| 2026-04-22 19:53 | 51.35233 | 8.71477 | 18782 ft | 432 kts | 251° |
| 2026-04-22 19:53 | 51.34201 | 8.66999 | 18467 ft | 430 kts | 251° |
| 2026-04-22 19:53 | 51.33172 | 8.62547 | 18161 ft | 428 kts | 251° |
| 2026-04-22 19:53 | 51.32133 | 8.58066 | 17857 ft | 426 kts | 251° |
| 2026-04-22 19:54 | 51.31114 | 8.53675 | 17554 ft | 425 kts | 251° |
| 2026-04-22 19:54 | 51.30091 | 8.49278 | 17250 ft | 420 kts | 251° |
| 2026-04-22 19:54 | 51.29085 | 8.44968 | 16938 ft | 409 kts | 251° |
| 2026-04-22 19:54 | 51.28100 | 8.40754 | 16621 ft | 398 kts | 251° |
| 2026-04-22 19:55 | 51.26914 | 8.36841 | 16346 ft | 388 kts | 241° |
| 2026-04-22 19:55 | 51.25577 | 8.33149 | 16075 ft | 381 kts | 242° |
| 2026-04-22 19:55 | 51.24259 | 8.29486 | 15782 ft | 372 kts | 241° |
| 2026-04-22 19:55 | 51.22981 | 8.25955 | 15494 ft | 368 kts | 241° |
| 2026-04-22 19:56 | 51.21702 | 8.22439 | 15214 ft | 366 kts | 241° |
| 2026-04-22 19:56 | 51.20432 | 8.18950 | 14933 ft | 365 kts | 241° |
| 2026-04-22 19:56 | 51.19152 | 8.15441 | 14667 ft | 364 kts | 241° |
| 2026-04-22 19:56 | 51.17896 | 8.12004 | 14417 ft | 363 kts | 241° |
| 2026-04-22 19:57 | 51.16627 | 8.08539 | 14165 ft | 362 kts | 241° |
| 2026-04-22 19:57 | 51.15355 | 8.05067 | 13917 ft | 360 kts | 241° |
| 2026-04-22 19:57 | 51.14094 | 8.01636 | 13663 ft | 360 kts | 241° |
| 2026-04-22 19:57 | 51.12834 | 7.98208 | 13410 ft | 358 kts | 241° |
| 2026-04-22 19:58 | 51.11588 | 7.94822 | 13162 ft | 355 kts | 241° |
| 2026-04-22 19:58 | 51.10324 | 7.91397 | 12907 ft | 355 kts | 241° |
| 2026-04-22 19:58 | 51.09095 | 7.88069 | 12655 ft | 352 kts | 241° |
| 2026-04-22 19:58 | 51.07848 | 7.84694 | 12404 ft | 352 kts | 242° |
| 2026-04-22 19:59 | 51.06877 | 7.81191 | 12341 ft | 343 kts | 258° |
| 2026-04-22 20:00 | 51.06471 | 7.58447 | 12344 ft | 341 kts | 273° |
| 2026-04-22 20:00 | 51.06461 | 7.54727 | 12125 ft | 329 kts | 273° |
| 2026-04-22 20:01 | 51.06467 | 7.51166 | 11846 ft | 313 kts | 274° |
| 2026-04-22 20:01 | 51.06472 | 7.47773 | 11409 ft | 306 kts | 274° |
| 2026-04-22 20:01 | 51.06479 | 7.44429 | 10814 ft | 305 kts | 273° |
| 2026-04-22 20:01 | 51.06483 | 7.41094 | 10305 ft | 301 kts | 273° |
| 2026-04-22 20:02 | 51.06486 | 7.37769 | 9748 ft | 299 kts | 273° |
| 2026-04-22 20:02 | 51.06489 | 7.34479 | 9233 ft | 295 kts | 272° |
| 2026-04-22 20:02 | 51.06488 | 7.31301 | 9036 ft | 280 kts | 272° |
| 2026-04-22 20:02 | 51.06541 | 7.28322 | 8949 ft | 259 kts | 279° |
| 2026-04-22 20:03 | 51.06783 | 7.25543 | 8614 ft | 255 kts | 281° |
| 2026-04-22 20:03 | 51.07035 | 7.22759 | 8236 ft | 256 kts | 281° |
| 2026-04-22 20:03 | 51.07284 | 7.19948 | 7881 ft | 255 kts | 281° |
| 2026-04-22 20:03 | 51.07516 | 7.17207 | 7464 ft | 253 kts | 280° |
| 2026-04-22 20:04 | 51.07750 | 7.14412 | 6981 ft | 251 kts | 280° |
| 2026-04-22 20:04 | 51.07978 | 7.11682 | 6606 ft | 249 kts | 280° |
| 2026-04-22 20:04 | 51.08139 | 7.08955 | 6258 ft | 248 kts | 269° |
| 2026-04-22 20:04 | 51.07933 | 7.06287 | 6046 ft | 236 kts | 263° |
| 2026-04-22 20:05 | 51.07702 | 7.03851 | 5941 ft | 216 kts | 263° |
| 2026-04-22 20:05 | 51.07483 | 7.01554 | 5640 ft | 207 kts | 263° |
| 2026-04-22 20:05 | 51.07277 | 6.99296 | 5292 ft | 204 kts | 263° |
| 2026-04-22 20:05 | 51.07081 | 6.97058 | 4942 ft | 204 kts | 263° |
| 2026-04-22 20:06 | 51.06899 | 6.94855 | 4611 ft | 202 kts | 263° |
| 2026-04-22 20:06 | 51.06724 | 6.92648 | 4277 ft | 200 kts | 263° |
| 2026-04-22 20:06 | 51.06379 | 6.90552 | 3964 ft | 195 kts | 234° |
| 2026-04-22 20:06 | 51.05347 | 6.89308 | 4043 ft | 190 kts | 191° |
| 2026-04-22 20:07 | 51.04036 | 6.89518 | 4037 ft | 193 kts | 147° |
| 2026-04-22 20:07 | 51.03067 | 6.90874 | 4013 ft | 182 kts | 131° |
| 2026-04-22 20:07 | 51.02202 | 6.92327 | 3947 ft | 178 kts | 131° |
| 2026-04-22 20:07 | 51.01312 | 6.93701 | 3712 ft | 179 kts | 135° |
| 2026-04-22 20:08 | 51.00378 | 6.95032 | 3496 ft | 181 kts | 135° |
| 2026-04-22 20:08 | 50.99443 | 6.96388 | 3265 ft | 181 kts | 135° |
| 2026-04-22 20:08 | 50.98528 | 6.97723 | 3032 ft | 180 kts | 135° |
| 2026-04-22 20:08 | 50.97607 | 6.99062 | 2794 ft | 178 kts | 135° |
| 2026-04-22 20:09 | 50.96688 | 7.00398 | 2556 ft | 177 kts | 135° |
| 2026-04-22 20:09 | 50.95776 | 7.01723 | 2318 ft | 177 kts | 134° |
| 2026-04-22 20:09 | 50.94881 | 7.03021 | 2084 ft | 173 kts | 134° |
| 2026-04-22 20:09 | 50.94017 | 7.04272 | 1889 ft | 161 kts | 134° |
| 2026-04-22 20:10 | 50.93213 | 7.05438 | 1638 ft | 153 kts | 133° |
| 2026-04-22 20:10 | 50.92466 | 7.06520 | 1465 ft | 139 kts | 133° |
| 2026-04-22 20:10 | 50.91751 | 7.07562 | 1265 ft | 141 kts | 134° |
| 2026-04-22 20:10 | 50.91017 | 7.08628 | 1075 ft | 144 kts | 134° |
| 2026-04-22 20:11 | 50.90277 | 7.09696 | 869 ft | 143 kts | 134° |
| 2026-04-22 20:11 | 50.89544 | 7.10755 | 675 ft | 144 kts | 134° |
| 2026-04-22 20:11 | 50.88797 | 7.11835 | 476 ft | 144 kts | 135° |
| 2026-04-22 20:11 | 50.88055 | 7.12899 | 272 ft | 144 kts | 136° |
| 2026-04-22 20:12 | 50.87327 | 7.13950 | 249 ft | 131 kts | 137° |
| 2026-04-22 20:12 | 50.86826 | 7.14678 | 269 ft | 67 kts | 137° |
| 2026-04-22 20:12 | 50.86464 | 7.15180 | 283 ft | 52 kts | 144° |
| 2026-04-22 20:12 | 50.86232 | 7.15332 | 287 ft | 19 kts | 167° |
| 2026-04-22 20:13 | 50.86133 | 7.15358 | 287 ft | 9 kts | 187° |
| 2026-04-22 20:13 | 50.86067 | 7.15296 | 286 ft | 13 kts | 231° |
| 2026-04-22 20:13 | 50.86051 | 7.15152 | 283 ft | 14 kts | 294° |
| 2026-04-22 20:13 | 50.86130 | 7.15013 | 280 ft | 19 kts | 317° |
| 2026-04-22 20:14 | 50.86238 | 7.14859 | 277 ft | 22 kts | 318° |
| 2026-04-22 20:14 | 50.86342 | 7.14707 | 274 ft | 14 kts | 317° |
| 2026-04-22 20:14 | 50.86420 | 7.14593 | 272 ft | 13 kts | 317° |
| 2026-04-22 20:14 | 50.86475 | 7.14514 | 270 ft | 11 kts | 317° |
| 2026-04-22 20:15 | 50.86511 | 7.14462 | 268 ft | 6 kts | 317° |
| 2026-04-22 20:15 | 50.86553 | 7.14401 | 267 ft | 11 kts | 317° |
| 2026-04-22 20:15 | 50.86639 | 7.14275 | 265 ft | 21 kts | 317° |
| 2026-04-22 20:15 | 50.86746 | 7.14143 | 260 ft | 13 kts | 342° |
| 2026-04-22 20:16 | 50.86818 | 7.14075 | 257 ft | 12 kts | 322° |
| 2026-04-22 20:16 | 50.86900 | 7.13959 | 254 ft | 18 kts | 317° |
| 2026-04-22 20:16 | 50.86995 | 7.13822 | 251 ft | 19 kts | 318° |
| 2026-04-22 20:16 | 50.87104 | 7.13664 | 247 ft | 22 kts | 317° |
| 2026-04-22 20:17 | 50.87228 | 7.13482 | 243 ft | 25 kts | 317° |
| 2026-04-22 20:17 | 50.87355 | 7.13301 | 241 ft | 19 kts | 317° |
| 2026-04-22 20:17 | 50.87459 | 7.13147 | 238 ft | 21 kts | 317° |
| 2026-04-22 20:17 | 50.87537 | 7.13036 | 237 ft | 6 kts | 317° |
| 2026-04-22 20:18 | 50.87567 | 7.12976 | 236 ft | 6 kts | 282° |
| 2026-04-22 20:18 | 50.87546 | 7.12924 | 236 ft | 7 kts | 227° |
| 2026-04-22 20:18 | 50.87522 | 7.12881 | 235 ft | 0 kts | 227° |
| 2026-04-22 20:18 | 50.87519 | 7.12875 | 235 ft | 0 kts | 227° |